Time;durP1;ratioP1;P1;durP2;ratioP2;P2;SDS_P1;SDS_P2;PMS_P1;PMS_P2;Temp;Humidity;BMP_temperature;BMP_pressure;BME280_temperature;BME280_humidity;BME280_pressure;Samples;Min_cycle;Max_cycle;Signal;HPM_P1;HPM_P2
2022/05/09 00:01:49;;;;;;;10.80;4.18;;;7.00;89.10;;;;;;5005260;28;20417;-80
2022/05/09 00:04:15;;;;;;;14.07;3.75;;;7.00;88.40;;;;;;5002840;28;20027;-80
2022/05/09 00:06:40;;;;;;;8.27;3.72;;;7.00;87.60;;;;;;5010027;28;20026;-80
2022/05/09 00:09:06;;;;;;;14.15;3.47;;;7.10;86.90;;;;;;4997361;28;20397;-80
2022/05/09 00:11:32;;;;;;;7.15;3.38;;;7.10;86.20;;;;;;4991745;28;20030;-80
2022/05/09 00:13:58;;;;;;;12.43;3.17;;;7.00;85.60;;;;;;5009976;28;20029;-80
2022/05/09 00:16:24;;;;;;;9.45;2.90;;;7.10;85.30;;;;;;5004542;28;20030;-80
2022/05/09 00:18:50;;;;;;;9.07;3.13;;;7.00;85.10;;;;;;4984183;28;20022;-80
2022/05/09 00:21:16;;;;;;;15.50;3.22;;;7.00;84.70;;;;;;4994914;28;20080;-80
2022/05/09 00:23:42;;;;;;;10.30;2.95;;;7.00;84.50;;;;;;5013399;28;20091;-80
2022/05/09 00:26:07;;;;;;;10.65;2.80;;;7.00;84.50;;;;;;4994453;28;20053;-80
2022/05/09 00:28:34;;;;;;;13.00;3.35;;;7.00;84.50;;;;;;4995890;28;20026;-80
2022/05/09 00:30:59;;;;;;;11.25;3.33;;;6.90;84.20;;;;;;4994588;28;20129;-80
2022/05/09 00:33:25;;;;;;;13.90;2.92;;;6.90;84.10;;;;;;5010685;28;20117;-80
2022/05/09 00:35:51;;;;;;;9.00;2.80;;;6.80;84.10;;;;;;4992147;28;20022;-80
2022/05/09 00:38:17;;;;;;;9.52;3.00;;;6.80;84.00;;;;;;5007175;28;20021;-80
2022/05/09 00:41:28;;;;;;;9.02;2.92;;;6.70;84.20;;;;;;5006314;28;20024;-80
2022/05/09 00:43:31;;;;;;;4.82;2.60;;;6.70;84.30;;;;;;5009441;28;20030;-80
2022/05/09 00:45:57;;;;;;;7.30;2.85;;;6.60;84.00;;;;;;5008697;28;20061;-80
2022/05/09 00:48:22;;;;;;;9.40;2.92;;;6.60;84.20;;;;;;5009174;28;20092;-80
2022/05/09 00:50:48;;;;;;;8.90;3.00;;;6.50;84.40;;;;;;4993734;28;20029;-80
2022/05/09 00:53:13;;;;;;;10.02;2.60;;;6.50;84.40;;;;;;5007201;28;20050;-80
2022/05/09 00:55:47;;;;;;;14.60;3.15;;;6.40;84.60;;;;;;4995730;28;20358;-80
2022/05/09 00:58:14;;;;;;;10.40;3.20;;;6.40;84.70;;;;;;5028363;28;20030;-80
2022/05/09 01:00:45;;;;;;;7.93;2.92;;;6.30;84.90;;;;;;5003203;28;20038;-80
2022/05/09 01:03:18;;;;;;;8.48;2.72;;;6.30;84.80;;;;;;5009747;28;20033;-80
2022/05/09 01:05:50;;;;;;;15.00;3.17;;;6.30;84.80;;;;;;4998110;28;20129;-80
2022/05/09 01:08:19;;;;;;;7.53;2.47;;;6.20;84.90;;;;;;5006844;28;20054;-80
2022/05/09 01:10:47;;;;;;;10.73;3.05;;;6.20;85.10;;;;;;4991886;28;20026;-80
2022/05/09 01:13:15;;;;;;;9.32;2.55;;;6.30;85.10;;;;;;5008345;28;20018;-80
2022/05/09 01:15:43;;;;;;;9.43;3.03;;;6.20;84.90;;;;;;5009574;28;20030;-80
2022/05/09 01:18:11;;;;;;;8.75;2.78;;;6.20;85.20;;;;;;5014557;28;20030;-80
2022/05/09 01:20:37;;;;;;;11.07;2.92;;;6.20;85.50;;;;;;5006408;28;20029;-80
2022/05/09 01:23:04;;;;;;;12.20;2.78;;;6.10;85.50;;;;;;5012322;28;20041;-80
2022/05/09 01:25:30;;;;;;;8.63;2.63;;;6.10;85.70;;;;;;5015822;28;20022;-80
2022/05/09 01:27:56;;;;;;;11.35;2.85;;;6.10;85.70;;;;;;4997159;28;20041;-80
2022/05/09 01:30:27;;;;;;;7.85;2.60;;;6.10;85.80;;;;;;5012444;28;20448;-80
2022/05/09 01:33:14;;;;;;;6.07;2.30;;;6.10;85.80;;;;;;4998498;28;20033;-80
2022/05/09 01:36:06;;;;;;;7.53;2.60;;;6.10;85.70;;;;;;5031410;28;20062;-80
2022/05/09 01:38:41;;;;;;;9.50;2.50;;;6.20;85.90;;;;;;5028386;28;20552;-80
2022/05/09 01:41:07;;;;;;;7.70;2.80;;;6.20;85.60;;;;;;4994973;28;20022;-80
2022/05/09 01:43:38;;;;;;;8.68;2.40;;;6.20;85.60;;;;;;5011255;28;20075;-80
2022/05/09 01:46:06;;;;;;;8.23;2.22;;;6.20;85.50;;;;;;5010167;28;20037;-80
2022/05/09 01:51:16;;;;;;;9.85;2.50;;;6.30;85.40;;;;;;5010364;28;20505;-80
2022/05/09 01:53:50;;;;;;;8.70;2.70;;;6.30;85.30;;;;;;4998555;28;20057;-80
2022/05/09 01:56:16;;;;;;;9.02;2.60;;;6.20;85.30;;;;;;4994958;28;20033;-80
2022/05/09 01:58:42;;;;;;;11.00;2.58;;;6.20;85.30;;;;;;5009556;28;20033;-80
2022/05/09 02:01:08;;;;;;;9.93;2.88;;;6.30;85.10;;;;;;4996241;28;20123;-80
2022/05/09 02:03:34;;;;;;;10.10;2.60;;;6.30;85.00;;;;;;5003231;28;20072;-80
2022/05/09 02:06:00;;;;;;;10.10;2.50;;;6.40;84.90;;;;;;4997532;28;20424;-80
2022/05/09 02:08:26;;;;;;;6.97;2.35;;;6.40;84.60;;;;;;5011104;28;20469;-80
2022/05/09 02:10:52;;;;;;;7.40;2.53;;;6.50;84.40;;;;;;4993886;28;20132;-79
2022/05/09 02:13:17;;;;;;;8.10;2.65;;;6.40;84.60;;;;;;5014782;28;20029;-80
2022/05/09 02:15:43;;;;;;;7.03;2.72;;;6.40;84.70;;;;;;5009436;28;20400;-80
2022/05/09 02:18:08;;;;;;;5.97;2.50;;;6.30;84.70;;;;;;4996667;28;20436;-80
2022/05/09 02:20:34;;;;;;;6.85;2.28;;;6.30;84.80;;;;;;5013843;28;20029;-80
2022/05/09 02:22:59;;;;;;;8.23;2.22;;;6.30;84.80;;;;;;4998929;28;20033;-80
2022/05/09 02:25:31;;;;;;;12.90;2.92;;;6.30;84.70;;;;;;5003109;28;20572;-80
2022/05/09 02:27:58;;;;;;;6.75;2.25;;;6.20;84.80;;;;;;5013553;28;20108;-80
2022/05/09 02:30:24;;;;;;;9.80;2.60;;;6.20;84.80;;;;;;5011204;28;20048;-80
2022/05/09 02:32:50;;;;;;;10.25;3.10;;;6.20;84.70;;;;;;5009356;28;20255;-80
2022/05/09 02:35:16;;;;;;;7.55;2.72;;;6.30;84.70;;;;;;5011995;28;20389;-80
2022/05/09 02:37:41;;;;;;;12.30;2.58;;;6.20;84.80;;;;;;5000450;28;20049;-80
2022/05/09 02:40:07;;;;;;;16.20;2.28;;;6.20;84.80;;;;;;5008575;28;20029;-80
2022/05/09 02:42:34;;;;;;;6.68;2.47;;;6.20;85.00;;;;;;5008335;28;20054;-80
2022/05/09 02:44:59;;;;;;;8.57;2.25;;;6.20;85.00;;;;;;4995952;28;20029;-80
2022/05/09 02:47:26;;;;;;;8.82;2.70;;;6.20;84.90;;;;;;4995105;28;20543;-80
2022/05/09 02:49:52;;;;;;;7.65;2.40;;;6.10;85.10;;;;;;4998041;28;20041;-80
2022/05/09 02:52:18;;;;;;;9.77;3.10;;;6.10;85.20;;;;;;5012079;28;20060;-80
2022/05/09 02:54:44;;;;;;;7.32;2.53;;;6.10;85.30;;;;;;5001930;28;20332;-80
2022/05/09 02:57:10;;;;;;;10.77;2.55;;;6.10;85.40;;;;;;5014411;28;20022;-80
2022/05/09 02:59:36;;;;;;;8.95;2.92;;;6.00;85.70;;;;;;5014030;28;20392;-80
2022/05/09 03:02:01;;;;;;;6.72;2.67;;;6.00;85.70;;;;;;5008755;28;20539;-80
2022/05/09 03:04:40;;;;;;;8.75;2.28;;;5.90;85.60;;;;;;4996559;28;20076;-80
2022/05/09 03:07:07;;;;;;;12.20;2.88;;;5.90;85.60;;;;;;4994632;28;20084;-80
2022/05/09 03:09:33;;;;;;;5.35;2.55;;;5.80;85.70;;;;;;5004235;28;20061;-80
2022/05/09 03:11:58;;;;;;;6.13;2.55;;;5.80;85.80;;;;;;5023802;28;20065;-80
2022/05/09 03:14:24;;;;;;;9.15;2.97;;;5.80;85.70;;;;;;5011881;28;20228;-79
2022/05/09 03:16:49;;;;;;;11.38;3.53;;;5.70;85.60;;;;;;5010319;28;20124;-80
2022/05/09 03:19:15;;;;;;;13.57;4.38;;;5.70;85.70;;;;;;5010926;28;20045;-80
2022/05/09 03:21:41;;;;;;;13.18;3.72;;;5.70;85.80;;;;;;4993891;28;20022;-79
2022/05/09 03:24:07;;;;;;;9.30;3.58;;;5.60;85.90;;;;;;5012659;28;20105;-79
2022/05/09 03:26:33;;;;;;;10.82;3.50;;;5.60;85.90;;;;;;5007841;28;20014;-79
2022/05/09 03:28:58;;;;;;;10.85;3.40;;;5.60;86.10;;;;;;5013185;28;20053;-79
2022/05/09 03:31:24;;;;;;;10.73;3.63;;;5.60;86.20;;;;;;4992784;28;20052;-79
2022/05/09 03:33:49;;;;;;;9.60;3.35;;;5.60;86.30;;;;;;5011056;28;20519;-79
2022/05/09 03:36:15;;;;;;;10.70;3.08;;;5.50;86.30;;;;;;4994855;28;20071;-79
2022/05/09 03:38:40;;;;;;;8.63;3.00;;;5.40;86.40;;;;;;5008645;28;20026;-79
2022/05/09 03:41:06;;;;;;;10.05;2.97;;;5.50;86.60;;;;;;5005939;28;20030;-79
2022/05/09 03:43:32;;;;;;;12.20;2.75;;;5.40;86.70;;;;;;5012653;28;20030;-79
2022/05/09 03:45:58;;;;;;;14.57;3.00;;;5.50;86.80;;;;;;5006606;28;20069;-79
2022/05/09 03:48:24;;;;;;;5.90;2.80;;;5.40;86.80;;;;;;4994073;28;20022;-79
2022/05/09 03:50:50;;;;;;;10.80;3.00;;;5.40;86.80;;;;;;5005900;28;20084;-79
2022/05/09 03:53:16;;;;;;;8.60;2.70;;;5.50;86.80;;;;;;5008801;28;20119;-79
2022/05/09 03:55:41;;;;;;;11.60;2.60;;;5.60;86.80;;;;;;5009557;28;20053;-79
2022/05/09 03:58:07;;;;;;;10.27;3.13;;;5.60;86.30;;;;;;4994795;28;20030;-79
2022/05/09 04:00:35;;;;;;;7.78;2.90;;;5.70;86.10;;;;;;5014470;28;20109;-79
2022/05/09 04:03:01;;;;;;;8.77;2.72;;;5.80;85.90;;;;;;5003273;28;20404;-79
2022/05/09 04:05:34;;;;;;;8.35;2.80;;;5.90;85.40;;;;;;4996089;28;20053;-79
2022/05/09 04:08:01;;;;;;;9.00;2.47;;;6.00;85.00;;;;;;4997934;28;20056;-79
2022/05/09 04:10:31;;;;;;;13.45;2.45;;;6.00;85.00;;;;;;5007727;28;20036;-79
2022/05/09 04:12:58;;;;;;;7.30;2.53;;;6.10;85.00;;;;;;5002162;28;20026;-79
2022/05/09 04:18:08;;;;;;;7.55;2.20;;;6.10;85.00;;;;;;5009444;28;20036;-79
2022/05/09 04:20:35;;;;;;;9.57;2.42;;;6.10;84.80;;;;;;4995642;28;20054;-79
2022/05/09 04:23:00;;;;;;;5.05;2.30;;;6.10;84.70;;;;;;4997872;28;20038;-79
2022/05/09 04:25:32;;;;;;;7.72;2.33;;;6.10;84.50;;;;;;4991058;28;20040;-80
2022/05/09 04:28:02;;;;;;;10.48;2.83;;;6.20;84.50;;;;;;5010668;28;20377;-79
2022/05/09 04:30:28;;;;;;;7.80;2.33;;;6.20;84.40;;;;;;5008635;28;20117;-79
2022/05/09 04:32:53;;;;;;;11.88;2.45;;;6.30;84.10;;;;;;5011757;28;20061;-80
2022/05/09 04:35:20;;;;;;;12.18;2.30;;;6.30;84.00;;;;;;5013352;28;20100;-80
2022/05/09 04:37:48;;;;;;;8.80;2.47;;;6.40;83.90;;;;;;4992987;28;20389;-79
2022/05/09 04:40:19;;;;;;;8.85;1.98;;;6.50;83.90;;;;;;5007364;28;20034;-79
2022/05/09 04:42:45;;;;;;;7.03;2.30;;;6.60;83.60;;;;;;5006310;28;20030;-79
2022/05/09 04:45:13;;;;;;;11.07;2.40;;;6.50;83.50;;;;;;4991807;28;20026;-79
2022/05/09 04:47:38;;;;;;;9.32;2.67;;;6.60;83.10;;;;;;5005035;28;20423;-79
2022/05/09 04:50:05;;;;;;;6.70;2.50;;;6.70;82.80;;;;;;4990968;28;20102;-79
2022/05/09 04:52:30;;;;;;;7.32;2.17;;;6.80;82.30;;;;;;5006910;28;20034;-79
2022/05/09 04:54:56;;;;;;;11.00;2.53;;;6.90;81.90;;;;;;5009042;28;20037;-79
2022/05/09 04:57:21;;;;;;;4.38;2.15;;;6.90;81.80;;;;;;5010597;28;20040;-79
2022/05/09 04:59:47;;;;;;;9.00;2.35;;;7.00;82.00;;;;;;5015147;28;20037;-80
2022/05/09 05:02:12;;;;;;;8.90;2.47;;;7.10;81.00;;;;;;4997259;28;20080;-79
2022/05/09 05:04:38;;;;;;;6.47;2.47;;;7.20;80.60;;;;;;5012748;28;20661;-79
2022/05/09 05:07:03;;;;;;;5.97;2.35;;;7.20;80.90;;;;;;4996561;28;20124;-79
2022/05/09 05:09:30;;;;;;;9.43;2.20;;;7.20;81.30;;;;;;5003900;28;20118;-79
2022/05/09 05:11:56;;;;;;;4.70;1.83;;;7.30;81.00;;;;;;5014554;28;20034;-79
2022/05/09 05:14:21;;;;;;;8.00;2.50;;;7.40;79.80;;;;;;5004301;28;20116;-79
2022/05/09 05:16:59;;;;;;;9.30;2.00;;;7.40;80.30;;;;;;5017974;28;20024;-79
2022/05/09 05:19:25;;;;;;;15.00;2.33;;;7.50;80.40;;;;;;5013194;28;20065;-79
2022/05/09 05:21:50;;;;;;;9.52;2.40;;;7.60;79.30;;;;;;5009624;28;20037;-79
2022/05/09 05:24:16;;;;;;;5.85;2.00;;;7.70;78.50;;;;;;5012760;28;20113;-79
2022/05/09 05:26:41;;;;;;;5.95;2.00;;;7.80;78.40;;;;;;5013887;28;20030;-79
2022/05/09 05:29:07;;;;;;;7.13;2.35;;;8.00;77.50;;;;;;5018620;28;20108;-79
2022/05/09 05:31:32;;;;;;;7.22;2.03;;;8.10;77.20;;;;;;5015192;28;20026;-79
2022/05/09 05:33:58;;;;;;;7.72;1.80;;;8.20;76.90;;;;;;5016838;28;20500;-79
2022/05/09 05:36:23;;;;;;;8.55;1.85;;;8.30;76.90;;;;;;5014635;28;20021;-80
2022/05/09 05:38:51;;;;;;;9.63;2.22;;;8.30;77.40;;;;;;5015542;28;20029;-79
2022/05/09 05:41:20;;;;;;;8.82;2.00;;;8.40;77.00;;;;;;5012497;28;20022;-79
2022/05/09 05:43:46;;;;;;;11.60;2.28;;;8.60;75.10;;;;;;5010001;28;20026;-79
2022/05/09 05:46:12;;;;;;;9.02;2.20;;;8.70;75.70;;;;;;5014730;28;20041;-80
2022/05/09 05:48:39;;;;;;;8.52;2.42;;;8.80;76.10;;;;;;4998179;28;20030;-80
2022/05/09 05:51:05;;;;;;;10.27;2.03;;;9.00;74.20;;;;;;5017804;28;20461;-79
2022/05/09 05:53:31;;;;;;;10.05;2.13;;;9.10;74.20;;;;;;4992429;28;20068;-80
2022/05/09 05:55:57;;;;;;;9.23;1.80;;;9.30;73.80;;;;;;5020662;28;20034;-80
2022/05/09 05:58:25;;;;;;;10.65;2.00;;;9.50;73.20;;;;;;5018104;28;20026;-80
2022/05/09 06:00:51;;;;;;;7.43;1.77;;;9.60;72.00;;;;;;5000985;28;20105;-80
2022/05/09 06:03:16;;;;;;;5.97;1.83;;;9.70;72.40;;;;;;5003552;28;20120;-80
2022/05/09 06:05:42;;;;;;;8.60;1.65;;;9.80;70.60;;;;;;5000471;28;20030;-80
2022/05/09 06:08:08;;;;;;;6.55;2.03;;;9.90;71.50;;;;;;5022423;28;20034;-80
2022/05/09 06:10:34;;;;;;;8.52;1.95;;;10.10;70.90;;;;;;5013808;28;20037;-79
2022/05/09 06:13:04;;;;;;;8.57;2.30;;;10.20;69.10;;;;;;5015306;28;20456;-79
2022/05/09 06:15:33;;;;;;;6.07;1.75;;;10.40;69.60;;;;;;5016446;28;20028;-79
2022/05/09 06:18:01;;;;;;;5.28;1.70;;;10.50;66.50;;;;;;5013146;28;20030;-79
2022/05/09 06:20:31;;;;;;;7.05;2.10;;;10.60;65.40;;;;;;5011183;28;20029;-80
2022/05/09 06:22:58;;;;;;;4.50;1.55;;;10.70;66.30;;;;;;5001242;28;20026;-80
2022/05/09 06:25:25;;;;;;;4.93;1.48;;;10.80;66.20;;;;;;5017034;28;20037;-80
2022/05/09 06:27:51;;;;;;;7.78;1.90;;;11.00;66.50;;;;;;5019798;28;20054;-80
2022/05/09 06:30:19;;;;;;;5.72;1.42;;;11.30;67.50;;;;;;5019125;28;20038;-80
2022/05/09 06:32:45;;;;;;;6.35;1.55;;;11.40;65.20;;;;;;5013800;28;20040;-80
2022/05/09 06:35:14;;;;;;;6.00;2.00;;;11.60;66.50;;;;;;4999268;28;20381;-80
2022/05/09 06:37:41;;;;;;;7.18;1.80;;;11.70;66.70;;;;;;4999464;28;20025;-80
2022/05/09 06:40:09;;;;;;;4.95;1.60;;;11.90;63.60;;;;;;5014042;28;20032;-80
2022/05/09 06:42:35;;;;;;;6.55;1.77;;;12.10;65.60;;;;;;4998467;28;20022;-80
2022/05/09 06:45:01;;;;;;;6.80;1.70;;;12.30;63.70;;;;;;5020177;28;20033;-80
2022/05/09 06:47:26;;;;;;;5.40;1.80;;;12.30;61.80;;;;;;4999146;28;20032;-80
2022/05/09 06:49:52;;;;;;;4.82;1.30;;;12.60;64.50;;;;;;4989823;28;20053;-80
2022/05/09 06:52:18;;;;;;;4.97;1.30;;;12.50;60.30;;;;;;5001662;28;20405;-80
2022/05/09 06:54:43;;;;;;;6.47;1.70;;;12.80;62.10;;;;;;5000544;28;20026;-80
2022/05/09 06:57:09;;;;;;;7.53;1.48;;;12.90;62.40;;;;;;5018280;28;20041;-80
2022/05/09 06:59:35;;;;;;;9.82;2.05;;;13.30;61.60;;;;;;4999426;28;20033;-81
2022/05/09 07:02:01;;;;;;;7.10;1.52;;;13.30;59.30;;;;;;5009810;28;20027;-80
2022/05/09 07:04:27;;;;;;;5.93;1.40;;;13.30;58.90;;;;;;5014966;28;20034;-80
2022/05/09 07:06:52;;;;;;;8.20;2.40;;;13.40;57.40;;;;;;4999194;28;20037;-80
2022/05/09 07:09:18;;;;;;;6.40;1.65;;;13.60;56.90;;;;;;5014345;28;20377;-81
2022/05/09 07:11:44;;;;;;;5.63;1.55;;;13.90;57.00;;;;;;5014777;28;20045;-81
2022/05/09 07:14:10;;;;;;;6.43;1.73;;;14.10;57.60;;;;;;4998885;28;20025;-81
2022/05/09 07:16:36;;;;;;;5.25;1.88;;;14.30;54.80;;;;;;4997875;28;20049;-81
2022/05/09 07:19:04;;;;;;;5.90;1.42;;;14.10;56.20;;;;;;5013523;28;20061;-81
2022/05/09 07:21:30;;;;;;;8.75;2.53;;;14.40;56.00;;;;;;4996175;28;20026;-81
2022/05/09 07:23:56;;;;;;;11.38;1.65;;;14.60;55.90;;;;;;5010352;28;20087;-80
2022/05/09 07:26:21;;;;;;;6.38;1.60;;;14.90;54.50;;;;;;5006899;28;20030;-81
2022/05/09 07:28:47;;;;;;;9.25;1.85;;;15.00;55.00;;;;;;5015074;28;20041;-81
2022/05/09 07:31:13;;;;;;;8.85;1.52;;;15.10;54.50;;;;;;4996535;28;20025;-81
2022/05/09 07:33:38;;;;;;;7.20;1.60;;;15.30;55.20;;;;;;5015311;28;20065;-80
2022/05/09 07:36:05;;;;;;;5.43;1.58;;;15.30;53.00;;;;;;5014886;28;20057;-80
2022/05/09 07:38:30;;;;;;;8.02;1.88;;;15.10;54.20;;;;;;5011745;28;20041;-80
2022/05/09 07:40:57;;;;;;;5.85;1.58;;;15.20;54.00;;;;;;5008638;28;20026;-80
2022/05/09 07:43:25;;;;;;;6.88;1.98;;;15.50;53.40;;;;;;4998086;28;20034;-80
2022/05/09 07:45:52;;;;;;;8.30;1.90;;;15.60;53.40;;;;;;5012414;28;20093;-80
2022/05/09 07:48:21;;;;;;;9.20;1.90;;;15.60;53.20;;;;;;4996733;28;20026;-80
2022/05/09 07:50:48;;;;;;;8.95;1.48;;;15.80;53.60;;;;;;5009927;28;20473;-80
2022/05/09 07:53:24;;;;;;;5.05;1.77;;;16.00;53.90;;;;;;5011583;28;20053;-80
2022/05/09 07:55:50;;;;;;;8.52;1.98;;;15.90;52.30;;;;;;5006159;28;20025;-80
2022/05/09 07:58:15;;;;;;;6.53;1.52;;;16.00;50.80;;;;;;5009749;28;20025;-80
2022/05/09 08:00:42;;;;;;;6.72;1.92;;;16.40;52.20;;;;;;5010621;28;20109;-80
2022/05/09 08:03:14;;;;;;;7.35;1.67;;;16.40;50.50;;;;;;5010662;28;20809;-80
2022/05/09 08:05:40;;;;;;;7.53;1.60;;;16.50;51.90;;;;;;5006655;28;20026;-83
2022/05/09 08:08:06;;;;;;;6.20;1.73;;;16.50;52.30;;;;;;5012756;28;20092;-82
2022/05/09 08:10:32;;;;;;;5.07;1.48;;;17.00;51.50;;;;;;5009315;28;20030;-82
2022/05/09 08:12:58;;;;;;;9.48;1.58;;;16.90;49.60;;;;;;5001779;28;20030;-81
2022/05/09 08:15:26;;;;;;;4.50;1.55;;;17.10;48.90;;;;;;5009981;28;20030;-81
2022/05/09 08:17:52;;;;;;;6.80;1.58;;;17.60;47.10;;;;;;4995161;28;20030;-81
2022/05/09 08:20:18;;;;;;;6.53;1.63;;;17.40;46.70;;;;;;5014149;28;20496;-81
2022/05/09 08:22:47;;;;;;;6.13;1.70;;;17.50;46.60;;;;;;5015576;28;20084;-81
2022/05/09 08:25:14;;;;;;;6.07;1.63;;;17.40;48.10;;;;;;4995032;28;20033;-81
2022/05/09 08:27:40;;;;;;;8.77;1.65;;;18.10;48.30;;;;;;4997985;28;20034;-83
2022/05/09 08:30:07;;;;;;;7.60;1.73;;;18.10;43.60;;;;;;5017472;28;20804;-82
2022/05/09 08:32:36;;;;;;;9.43;1.70;;;18.00;45.20;;;;;;4995176;28;20034;-82
2022/05/09 08:35:03;;;;;;;4.55;1.40;;;18.00;45.20;;;;;;5000599;28;20048;-81
2022/05/09 08:37:28;;;;;;;8.43;1.80;;;18.30;45.30;;;;;;5014534;28;20189;-82
2022/05/09 08:39:54;;;;;;;6.78;1.73;;;18.40;44.30;;;;;;5005655;28;20072;-82
2022/05/09 08:42:33;;;;;;;4.78;1.55;;;18.50;42.50;;;;;;4993727;28;20181;-81
2022/05/09 08:45:08;;;;;;;3.17;1.30;;;18.10;40.50;;;;;;4991169;28;20030;-81
2022/05/09 08:47:51;;;;;;;5.38;1.40;;;17.80;41.70;;;;;;5009953;28;20034;-81
2022/05/09 08:50:37;;;;;;;7.35;2.20;;;17.70;43.30;;;;;;5010234;28;20090;-81
2022/05/09 08:53:11;;;;;;;6.07;1.73;;;18.10;43.20;;;;;;4996351;28;20049;-82
2022/05/09 08:55:40;;;;;;;5.85;1.73;;;18.70;42.80;;;;;;5012303;28;20049;-81
2022/05/09 08:58:19;;;;;;;10.52;1.60;;;18.70;42.40;;;;;;5001249;28;20030;-81
2022/05/09 09:00:47;;;;;;;8.35;2.22;;;19.00;43.40;;;;;;5007875;28;20018;-81
2022/05/09 09:03:31;;;;;;;7.95;1.65;;;19.20;41.70;;;;;;5002584;28;20030;-80
2022/05/09 09:06:21;;;;;;;6.65;1.52;;;19.50;39.00;;;;;;5014125;28;20541;-80
2022/05/09 09:09:02;;;;;;;10.23;2.08;;;19.30;41.70;;;;;;4995787;28;20034;-80
2022/05/09 09:11:45;;;;;;;11.50;1.88;;;19.40;40.70;;;;;;5007566;28;20065;-81
2022/05/09 09:14:45;;;;;;;7.57;1.73;;;19.50;43.40;;;;;;5005762;28;20064;-80
2022/05/09 09:17:47;;;;;;;6.72;2.05;;;20.10;39.90;;;;;;5009027;28;20034;-80
2022/05/09 09:20:24;;;;;;;4.70;1.48;;;19.80;39.40;;;;;;4993526;28;20036;-80
2022/05/09 09:23:17;;;;;;;7.53;1.80;;;20.00;36.50;;;;;;4991594;28;20579;-81
2022/05/09 09:26:04;;;;;;;8.63;1.73;;;19.90;37.30;;;;;;5008135;28;20033;-82
2022/05/09 09:28:35;;;;;;;8.38;1.75;;;20.20;37.50;;;;;;4991213;28;20037;-82
2022/05/09 09:31:06;;;;;;;9.23;1.35;;;20.50;38.60;;;;;;4990353;28;20037;-82
2022/05/09 09:33:33;;;;;;;;;;;20.60;36.00;;;;;;5014350;28;20408;-81
2022/05/09 09:36:08;;;;;;;6.05;1.75;;;19.60;37.20;;;;;;5011228;28;20617;-81
2022/05/09 09:38:42;;;;;;;5.22;1.65;;;19.60;37.30;;;;;;4992377;28;20407;-81
2022/05/09 09:41:17;;;;;;;6.47;1.33;;;19.70;35.30;;;;;;5001792;28;20392;-81
2022/05/09 09:43:42;;;;;;;6.68;2.10;;;20.00;37.70;;;;;;5008428;28;20034;-81
2022/05/09 09:46:09;;;;;;;7.57;1.63;;;19.70;37.10;;;;;;5012097;28;20040;-82
2022/05/09 09:48:35;;;;;;;8.00;1.67;;;20.50;34.80;;;;;;5001230;28;20030;-82
2022/05/09 09:51:08;;;;;;;5.93;1.63;;;20.60;35.90;;;;;;5010609;28;20036;-82
2022/05/09 09:53:38;;;;;;;7.88;2.08;;;20.80;34.30;;;;;;5029372;28;20050;-81
2022/05/09 09:56:09;;;;;;;6.57;1.88;;;20.30;35.60;;;;;;5008406;28;20022;-81
2022/05/09 09:58:38;;;;;;;9.48;1.85;;;20.90;36.40;;;;;;5012159;28;20113;-81
2022/05/09 10:01:13;;;;;;;7.53;1.90;;;20.90;35.50;;;;;;5011884;28;20075;-82
2022/05/09 10:04:02;;;;;;;5.70;1.67;;;21.10;36.90;;;;;;5001205;28;20030;-82
2022/05/09 10:06:28;;;;;;;5.80;2.15;;;21.40;33.70;;;;;;5015091;28;20197;-82
2022/05/09 10:08:59;;;;;;;6.57;1.98;;;21.60;34.60;;;;;;4999111;28;20054;-82
2022/05/09 10:11:28;;;;;;;6.25;1.80;;;21.80;34.30;;;;;;5005634;28;20034;-83
2022/05/09 10:14:00;;;;;;;5.45;1.52;;;21.60;35.40;;;;;;4994758;28;20069;-82
2022/05/09 10:16:33;;;;;;;6.80;1.92;;;21.80;35.90;;;;;;4993368;28;20026;-81
2022/05/09 10:19:02;;;;;;;6.75;1.48;;;21.50;34.80;;;;;;5026523;28;20044;-82
2022/05/09 10:24:47;;;;;;;6.95;1.42;;;22.00;36.20;;;;;;5015192;28;20029;-82
2022/05/09 10:27:22;;;;;;;7.28;1.80;;;22.10;34.00;;;;;;5013881;28;20022;-81
2022/05/09 10:29:56;;;;;;;8.23;1.70;;;22.30;35.70;;;;;;5028906;28;20026;-82
2022/05/09 10:32:42;;;;;;;7.07;1.88;;;21.70;35.30;;;;;;5011579;28;20417;-82
2022/05/09 10:35:35;;;;;;;6.55;1.58;;;22.00;33.80;;;;;;5009648;28;20111;-82
2022/05/09 10:38:12;;;;;;;5.72;1.65;;;22.50;33.60;;;;;;5012044;28;20895;-82
2022/05/09 10:40:41;;;;;;;7.60;2.25;;;22.60;34.90;;;;;;4997280;28;20033;-82
2022/05/09 10:43:30;;;;;;;6.88;1.73;;;23.10;34.60;;;;;;4996946;28;20496;-82
2022/05/09 10:45:56;;;;;;;7.13;1.77;;;22.90;31.10;;;;;;5014797;28;20053;-82
2022/05/09 10:48:34;;;;;;;4.45;1.50;;;22.50;31.50;;;;;;5007256;28;20461;-82
2022/05/09 10:51:11;;;;;;;5.35;1.60;;;22.60;30.50;;;;;;5029391;28;20498;-83
2022/05/09 10:54:12;;;;;;;6.55;1.70;;;22.70;32.90;;;;;;5014244;28;20045;-83
2022/05/09 10:57:04;;;;;;;5.85;1.48;;;22.80;29.50;;;;;;5011575;28;20034;-82
2022/05/09 10:59:33;;;;;;;2.63;1.33;;;23.10;31.00;;;;;;5015762;28;20042;-82
2022/05/09 11:02:01;;;;;;;5.13;1.70;;;23.00;27.60;;;;;;5011161;28;20030;-81
2022/05/09 11:04:31;;;;;;;6.35;1.95;;;22.50;28.50;;;;;;5013426;28;20018;-80
2022/05/09 11:07:27;;;;;;;6.15;2.00;;;23.00;30.50;;;;;;5005677;28;20716;-81
2022/05/09 11:09:59;;;;;;;6.65;1.60;;;23.40;29.80;;;;;;5005986;28;20056;-80
2022/05/09 11:12:42;;;;;;;6.45;1.50;;;23.80;29.10;;;;;;5006101;28;20022;-80
2022/05/09 11:15:44;;;;;;;5.25;1.40;;;23.50;29.40;;;;;;4994122;28;20030;-80
2022/05/09 11:18:58;;;;;;;5.70;1.60;;;23.30;27.50;;;;;;5005478;28;20045;-80
2022/05/09 11:21:51;;;;;;;8.18;1.70;;;23.80;27.40;;;;;;4940178;28;20027;-80
2022/05/09 11:24:19;;;;;;;6.40;2.00;;;23.90;26.80;;;;;;5009732;28;20116;-81
2022/05/09 11:27:22;;;;;;;7.88;1.88;;;24.00;27.30;;;;;;5010919;28;20030;-80
2022/05/09 11:30:01;;;;;;;5.70;2.00;;;23.80;27.00;;;;;;5010803;28;20049;-83
2022/05/09 11:32:41;;;;;;;9.80;2.23;;;24.10;27.70;;;;;;5007356;28;20476;-82
2022/05/09 11:35:26;;;;;;;7.60;2.25;;;23.80;27.80;;;;;;4994041;28;20036;-82
2022/05/09 11:38:12;;;;;;;7.00;1.73;;;23.90;28.80;;;;;;5007179;28;20038;-82
2022/05/09 11:40:43;;;;;;;7.97;1.80;;;24.20;26.10;;;;;;5019318;28;20409;-82
2022/05/09 11:43:46;;;;;;;6.15;1.83;;;24.30;27.70;;;;;;5010112;28;20489;-82
2022/05/09 11:46:42;;;;;;;5.78;2.40;;;24.60;27.40;;;;;;5007571;28;20030;-82
2022/05/09 11:49:34;;;;;;;6.07;2.40;;;25.10;28.10;;;;;;5007741;28;20093;-80
2022/05/09 11:52:06;;;;;;;10.30;2.65;;;24.50;26.60;;;;;;5012986;28;20040;-80
2022/05/09 11:54:36;;;;;;;7.00;2.15;;;25.40;27.60;;;;;;5010709;28;20050;-79
2022/05/09 11:57:10;;;;;;;7.70;1.73;;;24.70;25.90;;;;;;5009990;28;20076;-79
2022/05/09 11:59:37;;;;;;;6.93;1.75;;;24.70;27.30;;;;;;5010034;28;20018;-80
2022/05/09 12:02:10;;;;;;;5.18;1.70;;;24.70;26.30;;;;;;5009742;28;20030;-81
2022/05/09 12:04:47;;;;;;;4.45;2.10;;;25.00;25.70;;;;;;5002487;28;20030;-83
2022/05/09 12:07:21;;;;;;;5.10;1.63;;;24.90;25.70;;;;;;5011831;28;20068;-80
2022/05/09 12:10:01;;;;;;;7.85;2.00;;;25.20;26.80;;;;;;5012341;28;20026;-81
2022/05/09 12:12:41;;;;;;;7.85;2.03;;;25.00;24.70;;;;;;5010658;28;20085;-81
2022/05/09 12:15:29;;;;;;;;;;;26.00;23.90;;;;;;5007546;28;20032;-81
2022/05/09 12:17:58;;;;;;;7.05;1.85;;;26.50;25.60;;;;;;5003596;28;19913;-81
2022/05/09 12:20:29;;;;;;;9.25;1.95;;;26.40;23.30;;;;;;5004735;28;20417;-82
2022/05/09 12:22:57;;;;;;;4.43;1.55;;;26.40;23.80;;;;;;5004043;28;20040;-81
2022/05/09 12:25:35;;;;;;;4.07;1.25;;;25.50;25.00;;;;;;5011912;28;20092;-81
2022/05/09 12:28:16;;;;;;;3.92;1.60;;;25.90;24.10;;;;;;5012031;28;20034;-81
2022/05/09 12:30:52;;;;;;;4.20;1.73;;;26.00;23.10;;;;;;5004085;28;20022;-80
2022/05/09 12:33:26;;;;;;;3.65;1.63;;;26.90;23.60;;;;;;5006882;28;20476;-81
2022/05/09 12:35:55;;;;;;;5.30;1.45;;;26.70;24.60;;;;;;5004325;28;20512;-80
2022/05/09 12:38:28;;;;;;;4.78;1.45;;;26.40;23.80;;;;;;4991538;28;20037;-80
2022/05/09 12:41:08;;;;;;;4.22;1.35;;;26.90;24.10;;;;;;4993253;28;20038;-80
2022/05/09 12:43:36;;;;;;;5.53;1.50;;;26.50;23.80;;;;;;4992697;28;20131;-80
2022/05/09 12:46:04;;;;;;;5.88;1.58;;;27.30;24.40;;;;;;4991689;28;20034;-81
2022/05/09 12:48:30;;;;;;;5.88;1.45;;;26.60;24.30;;;;;;5006847;28;20084;-81
2022/05/09 12:51:04;;;;;;;5.75;1.65;;;27.00;24.50;;;;;;5010991;28;20034;-81
2022/05/09 12:53:32;;;;;;;6.13;1.77;;;27.00;24.50;;;;;;5006781;28;20054;-81
2022/05/09 12:55:58;;;;;;;4.30;1.95;;;27.00;22.80;;;;;;5011590;28;20022;-81
2022/05/09 12:58:32;;;;;;;6.82;1.42;;;26.90;24.10;;;;;;5021074;28;20041;-81
2022/05/09 13:01:10;;;;;;;10.15;2.17;;;27.30;23.00;;;;;;5009988;28;21307;-81
2022/05/09 13:03:45;;;;;;;5.07;1.50;;;27.60;23.10;;;;;;4994956;28;20033;-81
2022/05/09 13:06:12;;;;;;;4.95;1.98;;;27.90;23.40;;;;;;5003366;28;20038;-80
2022/05/09 13:08:39;;;;;;;4.78;1.75;;;27.90;22.40;;;;;;5010257;28;20030;-80
2022/05/09 13:11:14;;;;;;;5.40;1.50;;;27.10;22.50;;;;;;4989463;28;20048;-80
2022/05/09 13:13:41;;;;;;;6.47;2.05;;;27.50;21.80;;;;;;5009643;28;20034;-80
2022/05/09 13:16:08;;;;;;;5.22;1.90;;;27.50;21.40;;;;;;5009723;28;20033;-79